Terminal Aerodrome Forecast
Issued by NWS

Home | Current Version | Previous Version | Text Only | Print | Product List | Glossary On
Versions: 1 2 3 4 5 6 7 8 9 10 11 12
000
FTUS45 KGJT 231734
TAFASE
TAF
KASE 231734Z 2318/2418 35008KT P6SM VCTS SCT100CB SCT140
      TEMPO 2318/2321 -TSRA BKN090CB BKN120
     FM232100 32008G16KT P6SM VCTS SCT090CB BKN150
     FM240200 21004KT P6SM SCT200
     FM241700 29004KT P6SM BKN150=

USA.gov is the U.S. government's official web portal to all federal, state and local government web resources and services.